sensor_id;sensor_type;location;lat;lon;timestamp;P1;durP1;ratioP1;P2;durP2;ratioP2
57231;SDS011;43488;46.934;8.276;2023-08-21T00:02:24;999.58;;;537.50;;
57231;SDS011;43488;46.934;8.276;2023-08-21T00:04:54;947.10;;;517.50;;
57231;SDS011;43488;46.934;8.276;2023-08-21T00:07:22;951.78;;;525.70;;
57231;SDS011;43488;46.934;8.276;2023-08-21T00:09:51;947.28;;;510.70;;
57231;SDS011;43488;46.934;8.276;2023-08-21T00:12:19;990.22;;;539.45;;
57231;SDS011;43488;46.934;8.276;2023-08-21T00:14:47;996.40;;;532.70;;
57231;SDS011;43488;46.934;8.276;2023-08-21T00:17:14;923.92;;;479.38;;
57231;SDS011;43488;46.934;8.276;2023-08-21T00:19:42;902.65;;;453.30;;
57231;SDS011;43488;46.934;8.276;2023-08-21T00:22:09;868.05;;;442.92;;
57231;SDS011;43488;46.934;8.276;2023-08-21T00:24:36;765.92;;;379.77;;
57231;SDS011;43488;46.934;8.276;2023-08-21T00:27:04;797.90;;;382.08;;
57231;SDS011;43488;46.934;8.276;2023-08-21T00:29:31;798.42;;;372.55;;
57231;SDS011;43488;46.934;8.276;2023-08-21T00:31:58;797.25;;;371.45;;
57231;SDS011;43488;46.934;8.276;2023-08-21T00:34:26;798.38;;;378.13;;
57231;SDS011;43488;46.934;8.276;2023-08-21T00:36:53;834.35;;;450.42;;
57231;SDS011;43488;46.934;8.276;2023-08-21T00:39:20;807.17;;;379.80;;
57231;SDS011;43488;46.934;8.276;2023-08-21T00:41:48;802.00;;;375.70;;
57231;SDS011;43488;46.934;8.276;2023-08-21T00:44:15;803.75;;;378.63;;
57231;SDS011;43488;46.934;8.276;2023-08-21T00:46:42;794.00;;;377.35;;
57231;SDS011;43488;46.934;8.276;2023-08-21T00:49:11;830.05;;;431.75;;
57231;SDS011;43488;46.934;8.276;2023-08-21T00:51:39;804.97;;;383.85;;
57231;SDS011;43488;46.934;8.276;2023-08-21T00:54:06;829.72;;;442.80;;
57231;SDS011;43488;46.934;8.276;2023-08-21T00:56:33;819.42;;;440.77;;
57231;SDS011;43488;46.934;8.276;2023-08-21T00:59:01;823.00;;;431.15;;
57231;SDS011;43488;46.934;8.276;2023-08-21T01:01:28;819.17;;;431.48;;
57231;SDS011;43488;46.934;8.276;2023-08-21T01:03:55;893.60;;;445.35;;
57231;SDS011;43488;46.934;8.276;2023-08-21T01:06:23;939.72;;;485.63;;
57231;SDS011;43488;46.934;8.276;2023-08-21T01:09:04;933.05;;;474.90;;
57231;SDS011;43488;46.934;8.276;2023-08-21T01:14:37;889.28;;;441.98;;
57231;SDS011;43488;46.934;8.276;2023-08-21T01:17:18;891.95;;;452.60;;
57231;SDS011;43488;46.934;8.276;2023-08-21T01:19:47;898.78;;;457.92;;
57231;SDS011;43488;46.934;8.276;2023-08-21T01:22:16;899.55;;;458.00;;
57231;SDS011;43488;46.934;8.276;2023-08-21T01:24:43;899.25;;;460.85;;
57231;SDS011;43488;46.934;8.276;2023-08-21T01:27:12;909.63;;;485.27;;
57231;SDS011;43488;46.934;8.276;2023-08-21T01:29:42;903.40;;;461.23;;
57231;SDS011;43488;46.934;8.276;2023-08-21T01:37:29;957.30;;;502.42;;
57231;SDS011;43488;46.934;8.276;2023-08-21T01:40:00;887.63;;;435.05;;
57231;SDS011;43488;46.934;8.276;2023-08-21T01:42:27;892.22;;;443.58;;
57231;SDS011;43488;46.934;8.276;2023-08-21T01:44:54;876.83;;;448.08;;
57231;SDS011;43488;46.934;8.276;2023-08-21T01:47:21;887.22;;;449.08;;
57231;SDS011;43488;46.934;8.276;2023-08-21T01:49:49;843.35;;;375.50;;
57231;SDS011;43488;46.934;8.276;2023-08-21T01:52:19;859.50;;;390.55;;
57231;SDS011;43488;46.934;8.276;2023-08-21T01:54:47;858.33;;;388.08;;
57231;SDS011;43488;46.934;8.276;2023-08-21T01:57:17;908.95;;;459.27;;
57231;SDS011;43488;46.934;8.276;2023-08-21T01:59:45;870.03;;;403.00;;
57231;SDS011;43488;46.934;8.276;2023-08-21T02:02:12;906.20;;;455.98;;
57231;SDS011;43488;46.934;8.276;2023-08-21T02:04:39;906.45;;;452.17;;
57231;SDS011;43488;46.934;8.276;2023-08-21T02:07:07;910.75;;;461.10;;
57231;SDS011;43488;46.934;8.276;2023-08-21T02:09:34;914.13;;;453.10;;
57231;SDS011;43488;46.934;8.276;2023-08-21T02:12:02;864.50;;;391.65;;
57231;SDS011;43488;46.934;8.276;2023-08-21T02:14:33;908.13;;;452.55;;
57231;SDS011;43488;46.934;8.276;2023-08-21T02:17:01;861.13;;;392.20;;
57231;SDS011;43488;46.934;8.276;2023-08-21T02:19:28;863.13;;;387.83;;
57231;SDS011;43488;46.934;8.276;2023-08-21T02:21:56;863.75;;;396.92;;
57231;SDS011;43488;46.934;8.276;2023-08-21T02:24:23;903.55;;;452.10;;
57231;SDS011;43488;46.934;8.276;2023-08-21T02:26:51;857.83;;;392.45;;
57231;SDS011;43488;46.934;8.276;2023-08-21T02:29:18;901.53;;;453.23;;
57231;SDS011;43488;46.934;8.276;2023-08-21T02:31:45;859.17;;;393.10;;
57231;SDS011;43488;46.934;8.276;2023-08-21T02:34:12;898.45;;;449.23;;
57231;SDS011;43488;46.934;8.276;2023-08-21T02:36:40;860.03;;;399.95;;
57231;SDS011;43488;46.934;8.276;2023-08-21T02:39:07;856.33;;;384.40;;
57231;SDS011;43488;46.934;8.276;2023-08-21T02:41:35;857.95;;;391.88;;
57231;SDS011;43488;46.934;8.276;2023-08-21T02:44:02;858.42;;;388.35;;
57231;SDS011;43488;46.934;8.276;2023-08-21T02:46:29;838.72;;;382.95;;
57231;SDS011;43488;46.934;8.276;2023-08-21T02:48:58;813.75;;;367.65;;
57231;SDS011;43488;46.934;8.276;2023-08-21T02:51:26;820.08;;;375.90;;
57231;SDS011;43488;46.934;8.276;2023-08-21T02:53:53;825.33;;;373.17;;
57231;SDS011;43488;46.934;8.276;2023-08-21T02:56:21;862.08;;;438.45;;
57231;SDS011;43488;46.934;8.276;2023-08-21T02:58:48;861.85;;;432.52;;
57231;SDS011;43488;46.934;8.276;2023-08-21T03:01:15;857.13;;;433.95;;
57231;SDS011;43488;46.934;8.276;2023-08-21T03:03:43;819.38;;;370.77;;
57231;SDS011;43488;46.934;8.276;2023-08-21T03:06:10;823.70;;;379.23;;
57231;SDS011;43488;46.934;8.276;2023-08-21T03:08:37;859.92;;;432.20;;
57231;SDS011;43488;46.934;8.276;2023-08-21T03:11:05;816.95;;;366.27;;
57231;SDS011;43488;46.934;8.276;2023-08-21T03:13:32;820.33;;;373.38;;
57231;SDS011;43488;46.934;8.276;2023-08-21T03:16:00;861.85;;;446.20;;
57231;SDS011;43488;46.934;8.276;2023-08-21T03:18:30;820.78;;;366.55;;
57231;SDS011;43488;46.934;8.276;2023-08-21T03:20:59;819.45;;;375.80;;
57231;SDS011;43488;46.934;8.276;2023-08-21T03:23:26;867.15;;;443.80;;
57231;SDS011;43488;46.934;8.276;2023-08-21T03:25:54;824.28;;;375.63;;
57231;SDS011;43488;46.934;8.276;2023-08-21T03:28:21;826.95;;;368.65;;
57231;SDS011;43488;46.934;8.276;2023-08-21T03:30:49;824.83;;;376.35;;
57231;SDS011;43488;46.934;8.276;2023-08-21T03:33:19;820.88;;;373.20;;
57231;SDS011;43488;46.934;8.276;2023-08-21T03:35:46;823.67;;;371.73;;
57231;SDS011;43488;46.934;8.276;2023-08-21T03:38:13;863.05;;;430.35;;
57231;SDS011;43488;46.934;8.276;2023-08-21T03:40:40;857.92;;;431.08;;
57231;SDS011;43488;46.934;8.276;2023-08-21T03:43:07;862.60;;;429.45;;
57231;SDS011;43488;46.934;8.276;2023-08-21T03:45:35;815.45;;;375.77;;
57231;SDS011;43488;46.934;8.276;2023-08-21T03:48:02;852.78;;;428.60;;
57231;SDS011;43488;46.934;8.276;2023-08-21T03:50:31;857.70;;;435.33;;
57231;SDS011;43488;46.934;8.276;2023-08-21T03:52:59;821.45;;;370.40;;
57231;SDS011;43488;46.934;8.276;2023-08-21T03:55:26;818.40;;;372.08;;
57231;SDS011;43488;46.934;8.276;2023-08-21T03:57:53;851.95;;;426.02;;
57231;SDS011;43488;46.934;8.276;2023-08-21T04:00:20;851.10;;;430.73;;
57231;SDS011;43488;46.934;8.276;2023-08-21T04:02:48;815.10;;;366.60;;
57231;SDS011;43488;46.934;8.276;2023-08-21T04:05:15;814.80;;;376.38;;
57231;SDS011;43488;46.934;8.276;2023-08-21T04:07:43;807.15;;;359.63;;
57231;SDS011;43488;46.934;8.276;2023-08-21T04:10:10;813.20;;;375.58;;
57231;SDS011;43488;46.934;8.276;2023-08-21T04:12:38;812.53;;;370.00;;
57231;SDS011;43488;46.934;8.276;2023-08-21T04:15:05;840.65;;;439.42;;
57231;SDS011;43488;46.934;8.276;2023-08-21T04:17:33;848.00;;;431.88;;
57231;SDS011;43488;46.934;8.276;2023-08-21T04:20:00;840.00;;;433.98;;
57231;SDS011;43488;46.934;8.276;2023-08-21T04:22:28;810.25;;;378.73;;
57231;SDS011;43488;46.934;8.276;2023-08-21T04:24:55;839.03;;;427.23;;
57231;SDS011;43488;46.934;8.276;2023-08-21T04:27:23;801.92;;;363.77;;
57231;SDS011;43488;46.934;8.276;2023-08-21T04:29:50;798.15;;;364.23;;
57231;SDS011;43488;46.934;8.276;2023-08-21T04:32:19;808.15;;;374.80;;
57231;SDS011;43488;46.934;8.276;2023-08-21T04:34:47;840.50;;;432.00;;
57231;SDS011;43488;46.934;8.276;2023-08-21T04:37:14;803.50;;;366.88;;
57231;SDS011;43488;46.934;8.276;2023-08-21T04:39:42;806.83;;;371.13;;
57231;SDS011;43488;46.934;8.276;2023-08-21T04:42:09;850.22;;;461.30;;
57231;SDS011;43488;46.934;8.276;2023-08-21T04:44:37;837.05;;;448.00;;
57231;SDS011;43488;46.934;8.276;2023-08-21T04:47:20;837.97;;;430.02;;
57231;SDS011;43488;46.934;8.276;2023-08-21T04:49:55;803.20;;;377.53;;
57231;SDS011;43488;46.934;8.276;2023-08-21T04:52:23;797.80;;;361.70;;
57231;SDS011;43488;46.934;8.276;2023-08-21T04:54:52;836.05;;;449.55;;
57231;SDS011;43488;46.934;8.276;2023-08-21T04:57:20;800.03;;;368.00;;
57231;SDS011;43488;46.934;8.276;2023-08-21T04:59:48;827.47;;;449.90;;
57231;SDS011;43488;46.934;8.276;2023-08-21T05:02:15;824.20;;;431.27;;
57231;SDS011;43488;46.934;8.276;2023-08-21T05:04:43;799.75;;;375.15;;
57231;SDS011;43488;46.934;8.276;2023-08-21T05:07:10;794.90;;;372.17;;
57231;SDS011;43488;46.934;8.276;2023-08-21T05:09:38;792.60;;;375.02;;
57231;SDS011;43488;46.934;8.276;2023-08-21T05:12:07;808.78;;;426.00;;
57231;SDS011;43488;46.934;8.276;2023-08-21T05:14:35;824.33;;;433.13;;
57231;SDS011;43488;46.934;8.276;2023-08-21T05:17:03;784.30;;;375.27;;
57231;SDS011;43488;46.934;8.276;2023-08-21T05:19:31;798.22;;;442.00;;
57231;SDS011;43488;46.934;8.276;2023-08-21T05:21:58;813.58;;;462.60;;
57231;SDS011;43488;46.934;8.276;2023-08-21T05:24:25;797.80;;;435.80;;
57231;SDS011;43488;46.934;8.276;2023-08-21T05:26:52;768.47;;;368.30;;
57231;SDS011;43488;46.934;8.276;2023-08-21T05:29:20;730.70;;;372.27;;
57231;SDS011;43488;46.934;8.276;2023-08-21T05:31:48;740.78;;;430.27;;
57231;SDS011;43488;46.934;8.276;2023-08-21T05:34:16;735.40;;;376.50;;
57231;SDS011;43488;46.934;8.276;2023-08-21T05:36:43;778.40;;;426.60;;
57231;SDS011;43488;46.934;8.276;2023-08-21T05:39:10;769.05;;;373.80;;
57231;SDS011;43488;46.934;8.276;2023-08-21T05:41:39;761.70;;;367.02;;
57231;SDS011;43488;46.934;8.276;2023-08-21T05:44:06;758.38;;;366.67;;
57231;SDS011;43488;46.934;8.276;2023-08-21T05:46:33;760.58;;;368.98;;
57231;SDS011;43488;46.934;8.276;2023-08-21T05:49:01;773.92;;;371.85;;
57231;SDS011;43488;46.934;8.276;2023-08-21T05:51:29;803.17;;;432.60;;
57231;SDS011;43488;46.934;8.276;2023-08-21T05:53:57;806.85;;;433.98;;
57231;SDS011;43488;46.934;8.276;2023-08-21T05:56:25;797.10;;;436.30;;
57231;SDS011;43488;46.934;8.276;2023-08-21T05:58:53;760.53;;;427.80;;
57231;SDS011;43488;46.934;8.276;2023-08-21T06:01:21;766.70;;;438.25;;
57231;SDS011;43488;46.934;8.276;2023-08-21T06:03:49;762.47;;;371.23;;
57231;SDS011;43488;46.934;8.276;2023-08-21T06:06:16;769.65;;;365.00;;
57231;SDS011;43488;46.934;8.276;2023-08-21T06:08:44;815.05;;;432.17;;
57231;SDS011;43488;46.934;8.276;2023-08-21T06:11:13;787.75;;;374.05;;
57231;SDS011;43488;46.934;8.276;2023-08-21T06:13:41;791.28;;;374.20;;
57231;SDS011;43488;46.934;8.276;2023-08-21T06:16:09;789.28;;;366.20;;
57231;SDS011;43488;46.934;8.276;2023-08-21T06:18:37;785.05;;;378.98;;
57231;SDS011;43488;46.934;8.276;2023-08-21T06:21:04;788.35;;;371.60;;
57231;SDS011;43488;46.934;8.276;2023-08-21T06:23:32;811.75;;;434.08;;
57231;SDS011;43488;46.934;8.276;2023-08-21T06:25:59;783.08;;;372.58;;
57231;SDS011;43488;46.934;8.276;2023-08-21T06:28:26;774.05;;;374.60;;
57231;SDS011;43488;46.934;8.276;2023-08-21T06:30:55;777.78;;;436.15;;
57231;SDS011;43488;46.934;8.276;2023-08-21T06:33:24;774.65;;;375.55;;
57231;SDS011;43488;46.934;8.276;2023-08-21T06:35:52;785.63;;;367.98;;
57231;SDS011;43488;46.934;8.276;2023-08-21T06:38:19;784.92;;;376.58;;
57231;SDS011;43488;46.934;8.276;2023-08-21T06:40:47;810.83;;;438.90;;
57231;SDS011;43488;46.934;8.276;2023-08-21T06:43:16;779.05;;;381.90;;
57231;SDS011;43488;46.934;8.276;2023-08-21T06:45:45;801.38;;;430.55;;
57231;SDS011;43488;46.934;8.276;2023-08-21T06:48:12;767.50;;;435.63;;
57231;SDS011;43488;46.934;8.276;2023-08-21T06:50:40;805.03;;;435.42;;
57231;SDS011;43488;46.934;8.276;2023-08-21T06:53:08;794.83;;;388.33;;
57231;SDS011;43488;46.934;8.276;2023-08-21T06:55:37;805.55;;;435.27;;
57231;SDS011;43488;46.934;8.276;2023-08-21T06:58:05;772.92;;;386.23;;
57231;SDS011;43488;46.934;8.276;2023-08-21T07:00:33;788.60;;;441.55;;
57231;SDS011;43488;46.934;8.276;2023-08-21T07:03:00;775.30;;;449.08;;
57231;SDS011;43488;46.934;8.276;2023-08-21T07:05:27;757.70;;;377.92;;
57231;SDS011;43488;46.934;8.276;2023-08-21T07:07:55;757.30;;;379.92;;
57231;SDS011;43488;46.934;8.276;2023-08-21T07:10:22;781.58;;;439.95;;
57231;SDS011;43488;46.934;8.276;2023-08-21T07:12:49;782.10;;;456.63;;
57231;SDS011;43488;46.934;8.276;2023-08-21T07:15:18;759.20;;;386.88;;
57231;SDS011;43488;46.934;8.276;2023-08-21T07:17:45;785.97;;;445.15;;
57231;SDS011;43488;46.934;8.276;2023-08-21T07:20:13;782.90;;;440.48;;
57231;SDS011;43488;46.934;8.276;2023-08-21T07:22:41;778.08;;;452.98;;
57231;SDS011;43488;46.934;8.276;2023-08-21T07:25:08;752.60;;;382.52;;
57231;SDS011;43488;46.934;8.276;2023-08-21T07:27:35;752.13;;;386.10;;
57231;SDS011;43488;46.934;8.276;2023-08-21T07:30:02;749.47;;;388.35;;
57231;SDS011;43488;46.934;8.276;2023-08-21T07:32:31;774.45;;;444.13;;
57231;SDS011;43488;46.934;8.276;2023-08-21T07:34:58;755.92;;;384.85;;
57231;SDS011;43488;46.934;8.276;2023-08-21T07:37:26;782.65;;;440.88;;
57231;SDS011;43488;46.934;8.276;2023-08-21T07:39:53;748.38;;;383.80;;
57231;SDS011;43488;46.934;8.276;2023-08-21T07:42:24;749.95;;;386.52;;
57231;SDS011;43488;46.934;8.276;2023-08-21T07:44:51;753.35;;;385.33;;
57231;SDS011;43488;46.934;8.276;2023-08-21T07:47:18;752.50;;;386.10;;
57231;SDS011;43488;46.934;8.276;2023-08-21T07:49:45;777.50;;;434.85;;
57231;SDS011;43488;46.934;8.276;2023-08-21T07:52:13;752.42;;;388.75;;
57231;SDS011;43488;46.934;8.276;2023-08-21T07:54:42;757.33;;;388.73;;
57231;SDS011;43488;46.934;8.276;2023-08-21T07:57:10;753.40;;;384.85;;
57231;SDS011;43488;46.934;8.276;2023-08-21T07:59:38;776.83;;;436.15;;
57231;SDS011;43488;46.934;8.276;2023-08-21T08:02:05;759.08;;;388.55;;
57231;SDS011;43488;46.934;8.276;2023-08-21T08:04:33;777.97;;;439.27;;
57231;SDS011;43488;46.934;8.276;2023-08-21T08:07:01;772.58;;;443.15;;
57231;SDS011;43488;46.934;8.276;2023-08-21T08:09:28;753.13;;;392.35;;
57231;SDS011;43488;46.934;8.276;2023-08-21T08:11:55;778.40;;;440.85;;
57231;SDS011;43488;46.934;8.276;2023-08-21T08:14:23;759.97;;;393.83;;
57231;SDS011;43488;46.934;8.276;2023-08-21T08:16:50;753.47;;;388.58;;
57231;SDS011;43488;46.934;8.276;2023-08-21T08:19:17;759.88;;;396.98;;
57231;SDS011;43488;46.934;8.276;2023-08-21T08:21:45;779.83;;;450.63;;
57231;SDS011;43488;46.934;8.276;2023-08-21T08:24:12;759.25;;;391.73;;
57231;SDS011;43488;46.934;8.276;2023-08-21T08:26:40;753.65;;;394.25;;
57231;SDS011;43488;46.934;8.276;2023-08-21T08:29:09;782.08;;;445.00;;
57231;SDS011;43488;46.934;8.276;2023-08-21T08:31:36;781.35;;;454.45;;
57231;SDS011;43488;46.934;8.276;2023-08-21T08:34:05;753.92;;;386.60;;
57231;SDS011;43488;46.934;8.276;2023-08-21T08:36:32;780.85;;;453.45;;
57231;SDS011;43488;46.934;8.276;2023-08-21T08:39:00;765.97;;;393.40;;
57231;SDS011;43488;46.934;8.276;2023-08-21T08:44:15;800.58;;;444.45;;
57231;SDS011;43488;46.934;8.276;2023-08-21T08:46:44;768.83;;;389.60;;
57231;SDS011;43488;46.934;8.276;2023-08-21T08:49:11;771.75;;;401.40;;
57231;SDS011;43488;46.934;8.276;2023-08-21T08:51:39;757.88;;;399.02;;
57231;SDS011;43488;46.934;8.276;2023-08-21T08:54:08;781.13;;;439.83;;
57231;SDS011;43488;46.934;8.276;2023-08-21T08:56:38;721.67;;;406.27;;
57231;SDS011;43488;46.934;8.276;2023-08-21T08:59:07;806.97;;;400.42;;
57231;SDS011;43488;46.934;8.276;2023-08-21T09:01:35;802.20;;;403.02;;
57231;SDS011;43488;46.934;8.276;2023-08-21T09:04:03;785.92;;;396.95;;
57231;SDS011;43488;46.934;8.276;2023-08-21T09:06:32;749.13;;;412.42;;
57231;SDS011;43488;46.934;8.276;2023-08-21T09:08:59;751.58;;;409.25;;
57231;SDS011;43488;46.934;8.276;2023-08-21T09:11:26;773.45;;;460.67;;
57231;SDS011;43488;46.934;8.276;2023-08-21T09:13:54;805.38;;;446.95;;
57231;SDS011;43488;46.934;8.276;2023-08-21T09:16:23;774.65;;;397.50;;
57231;SDS011;43488;46.934;8.276;2023-08-21T09:18:53;732.03;;;409.30;;
57231;SDS011;43488;46.934;8.276;2023-08-21T09:21:24;784.72;;;464.27;;
57231;SDS011;43488;46.934;8.276;2023-08-21T09:23:57;757.85;;;399.25;;
57231;SDS011;43488;46.934;8.276;2023-08-21T09:26:32;703.22;;;456.65;;
57231;SDS011;43488;46.934;8.276;2023-08-21T09:28:59;730.80;;;414.27;;
57231;SDS011;43488;46.934;8.276;2023-08-21T09:31:32;737.00;;;416.70;;
57231;SDS011;43488;46.934;8.276;2023-08-21T09:34:01;739.95;;;418.92;;
57231;SDS011;43488;46.934;8.276;2023-08-21T09:36:33;714.08;;;467.17;;
57231;SDS011;43488;46.934;8.276;2023-08-21T09:39:02;732.28;;;468.80;;
57231;SDS011;43488;46.934;8.276;2023-08-21T09:41:30;737.65;;;474.75;;
57231;SDS011;43488;46.934;8.276;2023-08-21T09:44:00;708.45;;;413.92;;
57231;SDS011;43488;46.934;8.276;2023-08-21T09:46:30;718.53;;;467.05;;
57231;SDS011;43488;46.934;8.276;2023-08-21T09:48:57;749.42;;;410.33;;
57231;SDS011;43488;46.934;8.276;2023-08-21T09:51:25;704.38;;;471.92;;
57231;SDS011;43488;46.934;8.276;2023-08-21T09:53:53;746.53;;;471.75;;
57231;SDS011;43488;46.934;8.276;2023-08-21T09:56:22;741.25;;;474.63;;
57231;SDS011;43488;46.934;8.276;2023-08-21T09:58:50;725.47;;;428.83;;
57231;SDS011;43488;46.934;8.276;2023-08-21T10:01:18;695.65;;;474.80;;
57231;SDS011;43488;46.934;8.276;2023-08-21T10:03:47;710.65;;;477.48;;
57231;SDS011;43488;46.934;8.276;2023-08-21T10:06:15;708.67;;;470.25;;
57231;SDS011;43488;46.934;8.276;2023-08-21T10:11:16;702.10;;;422.15;;
57231;SDS011;43488;46.934;8.276;2023-08-21T10:13:46;729.95;;;481.90;;
57231;SDS011;43488;46.934;8.276;2023-08-21T10:16:13;677.08;;;446.25;;
57231;SDS011;43488;46.934;8.276;2023-08-21T10:18:43;674.25;;;480.35;;
57231;SDS011;43488;46.934;8.276;2023-08-21T10:21:15;743.60;;;449.23;;
57231;SDS011;43488;46.934;8.276;2023-08-21T10:23:47;740.65;;;427.85;;
57231;SDS011;43488;46.934;8.276;2023-08-21T10:26:20;669.45;;;467.42;;
57231;SDS011;43488;46.934;8.276;2023-08-21T10:28:49;713.00;;;470.55;;
57231;SDS011;43488;46.934;8.276;2023-08-21T10:31:35;661.58;;;463.10;;
57231;SDS011;43488;46.934;8.276;2023-08-21T10:34:08;800.80;;;463.55;;
57231;SDS011;43488;46.934;8.276;2023-08-21T10:39:26;780.30;;;428.73;;
57231;SDS011;43488;46.934;8.276;2023-08-21T10:42:00;782.30;;;429.63;;
57231;SDS011;43488;46.934;8.276;2023-08-21T10:44:33;783.10;;;430.38;;
57231;SDS011;43488;46.934;8.276;2023-08-21T10:47:22;782.70;;;435.85;;
57231;SDS011;43488;46.934;8.276;2023-08-21T10:49:57;653.15;;;450.98;;
57231;SDS011;43488;46.934;8.276;2023-08-21T10:52:30;671.45;;;452.48;;
57231;SDS011;43488;46.934;8.276;2023-08-21T10:55:04;694.25;;;440.17;;
57231;SDS011;43488;46.934;8.276;2023-08-21T10:57:32;672.40;;;449.80;;
57231;SDS011;43488;46.934;8.276;2023-08-21T11:04:59;732.92;;;464.58;;
57231;SDS011;43488;46.934;8.276;2023-08-21T11:07:28;700.15;;;484.17;;
57231;SDS011;43488;46.934;8.276;2023-08-21T11:09:56;649.38;;;456.70;;
57231;SDS011;43488;46.934;8.276;2023-08-21T11:12:25;671.85;;;492.55;;
57231;SDS011;43488;46.934;8.276;2023-08-21T11:14:52;696.60;;;456.75;;
57231;SDS011;43488;46.934;8.276;2023-08-21T11:17:19;725.85;;;498.13;;
57231;SDS011;43488;46.934;8.276;2023-08-21T11:19:46;676.83;;;488.40;;
57231;SDS011;43488;46.934;8.276;2023-08-21T11:22:15;686.28;;;463.27;;
57231;SDS011;43488;46.934;8.276;2023-08-21T11:24:44;674.22;;;488.35;;
57231;SDS011;43488;46.934;8.276;2023-08-21T11:27:15;683.55;;;457.67;;
57231;SDS011;43488;46.934;8.276;2023-08-21T11:29:45;658.27;;;454.00;;
57231;SDS011;43488;46.934;8.276;2023-08-21T11:32:21;646.88;;;500.60;;
57231;SDS011;43488;46.934;8.276;2023-08-21T11:34:51;680.03;;;489.70;;
57231;SDS011;43488;46.934;8.276;2023-08-21T11:37:22;674.53;;;501.90;;
57231;SDS011;43488;46.934;8.276;2023-08-21T11:39:52;660.40;;;470.02;;
57231;SDS011;43488;46.934;8.276;2023-08-21T11:42:28;667.05;;;497.85;;
57231;SDS011;43488;46.934;8.276;2023-08-21T11:44:59;677.70;;;457.38;;
57231;SDS011;43488;46.934;8.276;2023-08-21T11:47:32;655.43;;;496.80;;
57231;SDS011;43488;46.934;8.276;2023-08-21T11:50:02;658.97;;;476.35;;
57231;SDS011;43488;46.934;8.276;2023-08-21T11:52:36;691.15;;;478.42;;
57231;SDS011;43488;46.934;8.276;2023-08-21T11:55:10;689.78;;;493.60;;
57231;SDS011;43488;46.934;8.276;2023-08-21T11:57:50;677.08;;;462.25;;
57231;SDS011;43488;46.934;8.276;2023-08-21T12:05:27;811.88;;;450.05;;
57231;SDS011;43488;46.934;8.276;2023-08-21T12:07:55;817.15;;;457.35;;
57231;SDS011;43488;46.934;8.276;2023-08-21T12:10:29;864.85;;;493.42;;
57231;SDS011;43488;46.934;8.276;2023-08-21T12:12:57;880.33;;;519.20;;
57231;SDS011;43488;46.934;8.276;2023-08-21T12:15:25;880.95;;;509.75;;
57231;SDS011;43488;46.934;8.276;2023-08-21T12:17:53;894.35;;;528.90;;
57231;SDS011;43488;46.934;8.276;2023-08-21T12:20:21;887.38;;;524.17;;
57231;SDS011;43488;46.934;8.276;2023-08-21T12:22:48;850.78;;;521.22;;
57231;SDS011;43488;46.934;8.276;2023-08-21T12:25:16;860.03;;;524.90;;
57231;SDS011;43488;46.934;8.276;2023-08-21T12:27:44;877.42;;;569.17;;
57231;SDS011;43488;46.934;8.276;2023-08-21T12:30:11;876.45;;;566.25;;
57231;SDS011;43488;46.934;8.276;2023-08-21T12:32:38;897.47;;;545.33;;
57231;SDS011;43488;46.934;8.276;2023-08-21T12:35:09;854.38;;;492.90;;
57231;SDS011;43488;46.934;8.276;2023-08-21T12:37:44;812.00;;;467.52;;
57231;SDS011;43488;46.934;8.276;2023-08-21T12:40:11;857.58;;;499.13;;
57231;SDS011;43488;46.934;8.276;2023-08-21T12:42:42;828.60;;;486.92;;
57231;SDS011;43488;46.934;8.276;2023-08-21T12:45:10;861.45;;;499.63;;
57231;SDS011;43488;46.934;8.276;2023-08-21T12:47:37;813.20;;;499.45;;
57231;SDS011;43488;46.934;8.276;2023-08-21T12:50:05;856.33;;;497.25;;
57231;SDS011;43488;46.934;8.276;2023-08-21T12:52:33;819.80;;;476.42;;
57231;SDS011;43488;46.934;8.276;2023-08-21T12:55:00;859.65;;;499.33;;
57231;SDS011;43488;46.934;8.276;2023-08-21T12:57:31;864.92;;;500.30;;
57231;SDS011;43488;46.934;8.276;2023-08-21T12:59:58;798.67;;;459.20;;
57231;SDS011;43488;46.934;8.276;2023-08-21T13:02:25;821.63;;;500.45;;
57231;SDS011;43488;46.934;8.276;2023-08-21T13:04:53;820.60;;;489.52;;
57231;SDS011;43488;46.934;8.276;2023-08-21T13:07:21;792.65;;;474.88;;
57231;SDS011;43488;46.934;8.276;2023-08-21T13:09:48;823.85;;;495.50;;
57231;SDS011;43488;46.934;8.276;2023-08-21T13:12:19;789.17;;;466.07;;
57231;SDS011;43488;46.934;8.276;2023-08-21T13:14:46;840.38;;;493.45;;
57231;SDS011;43488;46.934;8.276;2023-08-21T13:17:15;794.22;;;480.80;;
57231;SDS011;43488;46.934;8.276;2023-08-21T13:19:42;841.97;;;494.83;;
57231;SDS011;43488;46.934;8.276;2023-08-21T13:22:15;736.90;;;511.30;;
57231;SDS011;43488;46.934;8.276;2023-08-21T13:24:43;741.63;;;476.45;;
57231;SDS011;43488;46.934;8.276;2023-08-21T13:27:11;788.03;;;492.10;;
57231;SDS011;43488;46.934;8.276;2023-08-21T13:29:38;799.28;;;501.35;;
57231;SDS011;43488;46.934;8.276;2023-08-21T13:32:06;775.70;;;467.25;;
57231;SDS011;43488;46.934;8.276;2023-08-21T13:34:33;811.10;;;484.58;;
57231;SDS011;43488;46.934;8.276;2023-08-21T13:37:01;787.30;;;470.10;;
57231;SDS011;43488;46.934;8.276;2023-08-21T13:39:30;794.00;;;475.52;;
57231;SDS011;43488;46.934;8.276;2023-08-21T13:41:58;799.03;;;496.08;;
57231;SDS011;43488;46.934;8.276;2023-08-21T13:44:26;767.58;;;472.92;;
57231;SDS011;43488;46.934;8.276;2023-08-21T13:46:53;691.92;;;506.58;;
57231;SDS011;43488;46.934;8.276;2023-08-21T13:49:20;697.85;;;485.73;;
57231;SDS011;43488;46.934;8.276;2023-08-21T13:51:48;723.72;;;481.95;;
57231;SDS011;43488;46.934;8.276;2023-08-21T13:54:15;789.30;;;493.60;;
57231;SDS011;43488;46.934;8.276;2023-08-21T13:56:43;798.35;;;497.60;;
57231;SDS011;43488;46.934;8.276;2023-08-21T13:59:11;773.80;;;475.95;;
57231;SDS011;43488;46.934;8.276;2023-08-21T14:01:38;776.00;;;472.48;;
57231;SDS011;43488;46.934;8.276;2023-08-21T14:04:05;805.75;;;498.98;;
57231;SDS011;43488;46.934;8.276;2023-08-21T14:06:33;770.63;;;508.60;;
57231;SDS011;43488;46.934;8.276;2023-08-21T14:09:00;762.58;;;513.08;;
57231;SDS011;43488;46.934;8.276;2023-08-21T14:11:27;767.80;;;517.58;;
57231;SDS011;43488;46.934;8.276;2023-08-21T14:13:55;774.65;;;500.25;;
57231;SDS011;43488;46.934;8.276;2023-08-21T14:16:22;777.42;;;500.80;;
57231;SDS011;43488;46.934;8.276;2023-08-21T14:18:49;781.70;;;504.17;;
57231;SDS011;43488;46.934;8.276;2023-08-21T14:21:17;779.70;;;502.55;;
57231;SDS011;43488;46.934;8.276;2023-08-21T14:23:44;783.40;;;502.45;;
57231;SDS011;43488;46.934;8.276;2023-08-21T14:26:12;784.15;;;502.08;;
57231;SDS011;43488;46.934;8.276;2023-08-21T14:28:39;786.97;;;504.92;;
57231;SDS011;43488;46.934;8.276;2023-08-21T14:31:06;755.50;;;483.88;;